Portada
METAR-TAF:

METAR-TAF

Aeroports :

Malakula, Vanuatu

latitud: 16-27-26S, longitud: 167-49-42E, altitud: 2 m

Observació

L'informe es va fer fa 26 minuts, a les 09:00 UTC
Vent 10 kt del Est
Temperatura 25°C
Humitat 89%
Pressió 1013 hPa

METAR: NVSL 050900Z AUTO 08010KT //// // NCD 25/23 Q1013

Hora: 20:26 (09:26 UTC)

Pronòstic

L'informe es va fer fa 4 hores i 26 minuts, a les 05:00 UTC
Pronòstic vàlid del 05 a les 06 UTC al 06 a les 06 UTC
Vent 15 kt del Est
Visibilitat: 9000 m
Núvols disperses a una alçada de 2000 ft
Cel ennuvolat a una alçada de 4000 ft
Cel ennuvolat a una alçada de 1800 ft
xàfecs de pluja

TAF: NVSL 050500Z 0506/0606 10015KT 9999 SCT020 BKN040 INTER 0506/0512 9000 -SHRA BKN018

Observacions i pronòstics meteorològics de més de 4000 aeroports (METAR i TAF).

Les estacions disponibles són els punts grocs i vermells al mapa.

Posi el ratolí al punt desitjat per veure el nom de l'estació.

Feu clic per veure les observacions i els pronòstics meteorològics.

Per canviar el mapa: feu clic els botons verds amb una creu de color negre per apropar; al botó verd amb un guió per allunyar la imatge; o en les fletxes verdes per a mapes adjacents.


METAR-TAF: